createdAt,value
2023-04-27T00:01:47.534Z,77.11
2023-04-27T00:04:15.150Z,76.93
2023-04-27T00:06:43.376Z,76.62
2023-04-27T00:09:10.698Z,77.91
2023-04-27T00:11:38.173Z,78.07
2023-04-27T00:14:05.432Z,78.10
2023-04-27T00:16:32.855Z,78.01
2023-04-27T00:19:01.156Z,78.15
2023-04-27T00:21:28.502Z,78.11
2023-04-27T00:23:55.816Z,78.61
2023-04-27T00:26:23.261Z,78.40
2023-04-27T00:28:53.163Z,78.22
2023-04-27T00:31:20.514Z,78.30
2023-04-27T00:33:49.925Z,78.58
2023-04-27T00:36:17.322Z,78.45
2023-04-27T00:38:44.572Z,79.01
2023-04-27T00:41:11.930Z,78.67
2023-04-27T00:43:44.727Z,79.36
2023-04-27T00:46:15.551Z,78.43
2023-04-27T00:48:43.952Z,78.21
2023-04-27T00:51:11.336Z,78.32
2023-04-27T00:53:39.133Z,78.19
2023-04-27T00:56:08.287Z,78.29
2023-04-27T00:58:36.026Z,78.33
2023-04-27T01:01:04.353Z,78.69
2023-04-27T01:03:32.284Z,78.83
2023-04-27T01:06:02.071Z,78.78
2023-04-27T01:08:30.003Z,77.90
2023-04-27T01:10:57.549Z,78.51
2023-04-27T01:13:25.135Z,78.24
2023-04-27T01:15:52.420Z,78.23
2023-04-27T01:18:19.828Z,78.28
2023-04-27T01:20:47.120Z,78.48
2023-04-27T01:23:17.081Z,78.86
2023-04-27T01:25:45.053Z,79.04
2023-04-27T01:28:13.024Z,79.45
2023-04-27T01:30:40.252Z,79.18
2023-04-27T01:33:07.645Z,79.19
2023-04-27T01:35:34.978Z,79.49
2023-04-27T01:38:03.079Z,79.78
2023-04-27T01:40:30.391Z,79.44
2023-04-27T01:42:57.712Z,79.54
2023-04-27T01:45:25.371Z,80.11
2023-04-27T01:47:53.755Z,80.13
2023-04-27T01:50:21.861Z,80.19
2023-04-27T01:52:49.107Z,80.16
2023-04-27T01:55:16.444Z,80.68
2023-04-27T01:57:44.062Z,80.07
2023-04-27T02:00:12.655Z,79.97
2023-04-27T02:02:51.581Z,80.09
2023-04-27T02:05:19.292Z,79.88
2023-04-27T02:07:47.598Z,79.85
2023-04-27T02:10:15.877Z,79.20
2023-04-27T02:12:43.189Z,79.10
2023-04-27T02:15:10.784Z,79.37
2023-04-27T02:17:39.426Z,79.40
2023-04-27T02:20:07.721Z,79.40
2023-04-27T02:22:35.084Z,79.49
2023-04-27T02:25:02.542Z,79.53
2023-04-27T02:27:29.884Z,79.43
2023-04-27T02:29:58.688Z,79.18
2023-04-27T02:32:26.490Z,79.41
2023-04-27T02:34:53.735Z,78.83
2023-04-27T02:37:21.262Z,78.01
2023-04-27T02:39:48.453Z,77.70
2023-04-27T02:42:16.801Z,77.52
2023-04-27T02:44:44.150Z,77.29
2023-04-27T02:47:12.704Z,76.78
2023-04-27T02:49:40.433Z,76.66
2023-04-27T02:52:08.281Z,76.62
2023-04-27T02:54:35.646Z,76.99
2023-04-27T02:57:03.207Z,77.35
2023-04-27T02:59:30.527Z,77.87
2023-04-27T03:01:57.925Z,77.99
2023-04-27T03:04:25.229Z,78.43
2023-04-27T03:06:52.569Z,78.72
2023-04-27T03:09:19.904Z,78.88
2023-04-27T03:11:47.121Z,79.85
2023-04-27T03:14:14.380Z,80.28
2023-04-27T03:16:41.710Z,80.39
2023-04-27T03:19:08.926Z,80.52
2023-04-27T03:21:36.799Z,80.79
2023-04-27T03:24:04.284Z,80.60
2023-04-27T03:26:32.769Z,80.48
2023-04-27T03:29:00.104Z,80.68
2023-04-27T03:31:29.459Z,80.50
2023-04-27T03:33:57.473Z,81.17
2023-04-27T03:36:24.768Z,81.42
2023-04-27T03:38:51.984Z,81.68
2023-04-27T03:41:19.653Z,81.73
2023-04-27T03:43:48.165Z,81.45
2023-04-27T03:46:15.438Z,83.46
2023-04-27T03:48:44.561Z,83.99
2023-04-27T03:51:11.916Z,83.60
2023-04-27T03:53:39.238Z,84.54
2023-04-27T03:56:08.346Z,84.80
2023-04-27T03:58:35.626Z,84.89
2023-04-27T04:01:22.601Z,84.04
2023-04-27T04:03:52.298Z,85.83
2023-04-27T04:06:19.722Z,86.22
2023-04-27T04:08:47.049Z,86.29
2023-04-27T04:11:14.446Z,86.25
2023-04-27T04:13:42.561Z,86.52
2023-04-27T04:16:10.732Z,86.98
2023-04-27T04:18:39.881Z,87.00
2023-04-27T04:21:07.221Z,85.86
2023-04-27T04:23:34.540Z,86.19
2023-04-27T04:26:02.537Z,85.76
2023-04-27T04:28:34.406Z,85.98
2023-04-27T04:31:02.427Z,85.93
2023-04-27T04:33:29.825Z,84.75
2023-04-27T04:35:59.331Z,83.97
2023-04-27T04:38:26.877Z,83.35
2023-04-27T04:40:54.729Z,83.08
2023-04-27T04:43:22.676Z,81.99
2023-04-27T04:45:49.993Z,81.26
2023-04-27T04:48:18.600Z,81.04
2023-04-27T04:50:46.465Z,80.44
2023-04-27T04:53:14.181Z,79.54
2023-04-27T04:55:42.878Z,80.06
2023-04-27T04:58:10.652Z,80.98
2023-04-27T05:00:38.561Z,77.83
2023-04-27T05:03:08.026Z,77.81
2023-04-27T05:05:35.479Z,77.32
2023-04-27T05:08:03.119Z,77.26
2023-04-27T05:10:30.778Z,76.98
2023-04-27T05:12:58.290Z,75.87
2023-04-27T05:15:25.605Z,77.16
2023-04-27T05:17:54.716Z,77.32
2023-04-27T05:20:22.010Z,76.47
2023-04-27T05:22:49.327Z,75.58
2023-04-27T05:25:16.686Z,75.65
2023-04-27T05:27:43.901Z,74.98
2023-04-27T05:30:11.753Z,75.86
2023-04-27T05:32:39.946Z,75.56
2023-04-27T05:35:07.506Z,74.92
2023-04-27T05:37:37.792Z,74.59
2023-04-27T05:40:10.082Z,73.65
2023-04-27T05:42:37.428Z,72.25
2023-04-27T05:45:05.198Z,71.61
2023-04-27T05:47:32.533Z,71.44
2023-04-27T05:50:00.054Z,71.22
2023-04-27T05:52:31.385Z,70.21
2023-04-27T05:54:59.369Z,70.67
2023-04-27T05:57:27.276Z,69.20
2023-04-27T05:59:54.618Z,68.07
2023-04-27T06:02:23.035Z,67.55
2023-04-27T06:04:50.457Z,66.69
2023-04-27T06:07:17.783Z,67.95
2023-04-27T06:09:44.974Z,67.21
2023-04-27T06:12:12.264Z,63.08
2023-04-27T06:14:39.574Z,64.56
2023-04-27T06:17:07.165Z,64.82
2023-04-27T06:19:34.473Z,63.40
2023-04-27T06:22:01.811Z,63.47
2023-04-27T06:24:29.108Z,59.72
2023-04-27T06:26:57.506Z,58.32
2023-04-27T06:29:24.788Z,59.38
2023-04-27T06:31:52.217Z,59.80
2023-04-27T06:34:19.657Z,60.48
2023-04-27T06:36:47.301Z,60.48
2023-04-27T06:39:14.935Z,60.06
2023-04-27T06:41:42.374Z,58.99
2023-04-27T06:44:19.103Z,58.89
2023-04-27T06:46:46.344Z,59.28
2023-04-27T06:49:13.831Z,58.25
2023-04-27T06:51:41.559Z,58.09
2023-04-27T06:54:08.839Z,58.62
2023-04-27T06:56:36.150Z,58.34
2023-04-27T06:59:03.471Z,58.31
2023-04-27T07:01:30.925Z,57.72
2023-04-27T07:03:58.395Z,58.33
2023-04-27T07:06:27.146Z,57.13
2023-04-27T07:08:54.575Z,57.00
2023-04-27T07:11:21.934Z,55.59
2023-04-27T07:13:49.250Z,55.67
2023-04-27T07:16:17.464Z,55.20
2023-04-27T07:18:44.836Z,53.82
2023-04-27T07:21:12.328Z,52.10
2023-04-27T07:23:41.852Z,51.99
2023-04-27T07:26:10.330Z,49.20
2023-04-27T07:28:38.698Z,49.37
2023-04-27T07:31:07.048Z,49.96
2023-04-27T07:33:35.023Z,49.42
2023-04-27T07:36:03.036Z,48.33
2023-04-27T07:38:31.790Z,48.91
2023-04-27T07:41:05.026Z,47.79
2023-04-27T07:43:32.910Z,47.41
2023-04-27T07:46:00.255Z,44.01
2023-04-27T07:48:29.175Z,44.80
2023-04-27T07:50:56.676Z,44.74
2023-04-27T07:53:24.279Z,42.52
2023-04-27T07:55:51.761Z,42.50
2023-04-27T07:58:20.574Z,39.77
2023-04-27T08:00:47.943Z,39.43
2023-04-27T08:03:15.628Z,38.91
2023-04-27T08:05:43.281Z,37.48
2023-04-27T08:08:11.355Z,38.80
2023-04-27T08:10:38.754Z,39.89
2023-04-27T08:13:10.092Z,39.67
2023-04-27T08:15:37.921Z,39.88
2023-04-27T08:18:05.414Z,39.38
2023-04-27T08:20:32.662Z,38.55
2023-04-27T08:23:00.140Z,38.42
2023-04-27T08:25:27.548Z,37.17
2023-04-27T08:27:54.921Z,38.13
2023-04-27T08:30:22.262Z,37.70
2023-04-27T08:32:50.106Z,38.21
2023-04-27T08:35:17.440Z,36.37
2023-04-27T08:37:44.811Z,36.51
2023-04-27T08:40:12.453Z,37.09
2023-04-27T08:42:42.781Z,36.71
2023-04-27T08:45:10.278Z,36.86
2023-04-27T08:47:43.492Z,36.03
2023-04-27T08:50:13.179Z,35.29
2023-04-27T08:52:40.534Z,37.13
2023-04-27T08:55:08.830Z,38.25
2023-04-27T08:57:36.234Z,38.19
2023-04-27T09:00:13.562Z,37.77
2023-04-27T09:02:48.507Z,37.25
2023-04-27T09:05:24.974Z,36.15
2023-04-27T09:08:09.060Z,33.61
2023-04-27T09:10:46.434Z,31.57
2023-04-27T09:13:14.107Z,30.02
2023-04-27T09:15:52.146Z,30.24
2023-04-27T09:18:23.847Z,31.32
2023-04-27T09:20:52.546Z,29.33
2023-04-27T09:23:42.280Z,29.39
2023-04-27T09:26:09.562Z,28.56
2023-04-27T09:28:40.759Z,28.27
2023-04-27T09:31:09.726Z,27.89
2023-04-27T09:33:37.457Z,26.74
2023-04-27T09:36:07.178Z,25.12
2023-04-27T09:38:34.864Z,24.76
2023-04-27T09:41:03.615Z,25.95
2023-04-27T09:43:31.998Z,25.42
2023-04-27T09:45:59.473Z,24.90
2023-04-27T09:48:27.301Z,22.85
2023-04-27T09:50:54.705Z,20.95
2023-04-27T09:53:29.043Z,20.21
2023-04-27T09:56:08.643Z,19.30
2023-04-27T09:59:08.111Z,18.76
2023-04-27T10:01:51.032Z,17.43
2023-04-27T10:04:32.840Z,16.69
2023-04-27T10:07:06.050Z,16.50
2023-04-27T10:09:40.481Z,17.78
2023-04-27T10:12:23.012Z,20.35
2023-04-27T10:15:01.019Z,20.99
2023-04-27T10:17:33.514Z,22.53
2023-04-27T10:20:03.352Z,22.45
2023-04-27T10:22:48.659Z,22.36
2023-04-27T10:25:21.993Z,23.74
2023-04-27T10:28:15.909Z,23.61
2023-04-27T10:30:49.777Z,24.23
2023-04-27T10:33:20.115Z,24.42
2023-04-27T10:35:58.043Z,25.42
2023-04-27T10:38:30.849Z,28.72
2023-04-27T10:41:03.373Z,28.17
2023-04-27T10:43:32.603Z,28.79
2023-04-27T10:46:12.104Z,28.23
2023-04-27T10:48:43.950Z,29.40
2023-04-27T10:51:16.900Z,28.96
2023-04-27T10:53:44.168Z,29.40
2023-04-27T10:56:11.725Z,30.19
2023-04-27T11:01:09.723Z,31.22
2023-04-27T11:03:38.153Z,32.29
2023-04-27T11:06:06.619Z,31.87
2023-04-27T11:08:37.165Z,32.02
2023-04-27T11:11:06.650Z,32.83
2023-04-27T11:13:34.443Z,33.65
2023-04-27T11:16:01.781Z,33.28
2023-04-27T11:18:33.570Z,34.64
2023-04-27T11:21:15.989Z,34.17
2023-04-27T11:23:43.657Z,35.34
2023-04-27T11:26:18.116Z,36.42
2023-04-27T11:28:57.687Z,37.70
2023-04-27T11:31:25.885Z,36.45
2023-04-27T11:33:56.103Z,37.00
2023-04-27T11:36:25.548Z,37.62
2023-04-27T11:38:58.301Z,38.99
2023-04-27T11:41:37.539Z,38.39
2023-04-27T11:44:09.496Z,38.97
2023-04-27T11:46:38.296Z,38.35
2023-04-27T11:49:07.245Z,39.72
2023-04-27T11:51:34.974Z,39.75
2023-04-27T11:54:04.032Z,37.92
2023-04-27T11:56:42.389Z,38.09
2023-04-27T11:59:21.112Z,38.27
2023-04-27T12:01:49.533Z,37.06
2023-04-27T12:04:17.689Z,36.63
2023-04-27T12:06:45.274Z,36.29
2023-04-27T12:09:12.580Z,36.71
2023-04-27T12:11:39.921Z,37.12
2023-04-27T12:14:08.478Z,37.46
2023-04-27T12:16:36.014Z,36.00
2023-04-27T12:19:03.511Z,36.12
2023-04-27T12:21:32.659Z,36.29
2023-04-27T12:23:59.975Z,37.36
2023-04-27T12:26:27.218Z,36.70
2023-04-27T12:28:54.506Z,37.18
2023-04-27T12:31:27.579Z,37.50
2023-04-27T12:33:55.274Z,36.75
2023-04-27T12:36:22.499Z,35.95
2023-04-27T12:38:49.789Z,35.97
2023-04-27T12:41:17.025Z,37.48
2023-04-27T12:43:46.252Z,36.86
2023-04-27T12:46:13.642Z,37.09
2023-04-27T12:48:41.694Z,38.00
2023-04-27T12:51:09.307Z,36.72
2023-04-27T12:53:36.643Z,37.24
2023-04-27T12:56:05.084Z,37.24
2023-04-27T12:58:32.847Z,36.39
2023-04-27T13:01:00.137Z,36.57
2023-04-27T13:03:27.680Z,36.07
2023-04-27T13:05:54.994Z,36.05
2023-04-27T13:08:22.196Z,36.02
2023-04-27T13:10:49.581Z,36.63
2023-04-27T13:13:16.954Z,36.10
2023-04-27T13:15:44.325Z,35.61
2023-04-27T13:18:12.079Z,35.62
2023-04-27T13:20:39.487Z,35.96
2023-04-27T13:23:07.064Z,35.35
2023-04-27T13:25:34.719Z,35.42
2023-04-27T13:28:02.155Z,35.59
2023-04-27T13:30:31.046Z,36.22
2023-04-27T13:33:10.481Z,36.26
2023-04-27T13:35:46.027Z,35.52
2023-04-27T13:38:13.701Z,35.06
2023-04-27T13:40:41.311Z,34.32
2023-04-27T13:43:08.540Z,34.26
2023-04-27T13:45:35.769Z,34.61
2023-04-27T13:48:03.126Z,34.15
2023-04-27T13:50:30.512Z,34.50
2023-04-27T13:52:57.755Z,34.59
2023-04-27T13:55:25.108Z,35.42
2023-04-27T13:57:52.343Z,34.90
2023-04-27T14:00:20.195Z,35.12
2023-04-27T14:02:47.527Z,34.61
2023-04-27T14:05:14.901Z,35.86
2023-04-27T14:07:42.171Z,34.85
2023-04-27T14:10:09.841Z,34.77
2023-04-27T14:12:37.434Z,34.49
2023-04-27T14:15:05.180Z,36.50
2023-04-27T14:17:32.742Z,36.51
2023-04-27T14:20:00.103Z,35.78
2023-04-27T14:22:27.343Z,35.89
2023-04-27T14:24:56.760Z,36.41
2023-04-27T14:27:24.103Z,36.80
2023-04-27T14:29:51.443Z,37.18
2023-04-27T14:32:18.860Z,38.09
2023-04-27T14:34:46.347Z,38.59
2023-04-27T14:37:13.641Z,38.38
2023-04-27T14:39:42.905Z,39.42
2023-04-27T14:42:12.404Z,38.77
2023-04-27T14:44:39.646Z,39.82
2023-04-27T14:47:07.169Z,39.74
2023-04-27T14:49:34.515Z,39.80
2023-04-27T14:52:04.879Z,40.36
2023-04-27T14:54:32.748Z,40.06
2023-04-27T14:57:01.593Z,41.35
2023-04-27T14:59:29.366Z,42.02
2023-04-27T15:01:56.626Z,41.96
2023-04-27T15:04:24.133Z,41.97
2023-04-27T15:06:52.095Z,42.51
2023-04-27T15:09:19.508Z,42.16
2023-04-27T15:11:47.175Z,41.91
2023-04-27T15:14:14.525Z,41.57
2023-04-27T15:16:41.749Z,41.67
2023-04-27T15:19:09.117Z,41.91
2023-04-27T15:21:36.467Z,41.74
2023-04-27T15:24:03.898Z,41.41
2023-04-27T15:26:31.172Z,41.07
2023-04-27T15:28:59.843Z,41.05
2023-04-27T15:31:27.279Z,41.24
2023-04-27T15:33:55.165Z,41.12
2023-04-27T15:36:23.421Z,40.97
2023-04-27T15:38:52.438Z,41.25
2023-04-27T15:41:19.697Z,42.06
2023-04-27T15:43:47.953Z,42.58
2023-04-27T15:46:15.982Z,41.59
2023-04-27T15:48:43.335Z,42.12
2023-04-27T15:51:10.793Z,42.41
2023-04-27T15:53:38.152Z,42.03
2023-04-27T15:56:05.812Z,43.04
2023-04-27T15:58:33.379Z,42.85
2023-04-27T16:01:01.174Z,43.30
2023-04-27T16:03:28.638Z,43.20
2023-04-27T16:05:55.951Z,43.64
2023-04-27T16:08:23.286Z,44.56
2023-04-27T16:10:50.888Z,44.92
2023-04-27T16:13:18.188Z,45.32
2023-04-27T16:15:45.563Z,45.67
2023-04-27T16:18:13.055Z,46.41
2023-04-27T16:20:40.410Z,46.69
2023-04-27T16:23:07.633Z,46.62
2023-04-27T16:25:35.024Z,46.43
2023-04-27T16:28:02.387Z,46.22
2023-04-27T16:30:29.749Z,46.53
2023-04-27T16:32:57.252Z,46.75
2023-04-27T16:35:24.880Z,47.21
2023-04-27T16:37:54.239Z,47.12
2023-04-27T16:40:21.661Z,47.55
2023-04-27T16:42:48.905Z,47.42
2023-04-27T16:45:16.361Z,47.95
2023-04-27T16:47:46.213Z,47.58
2023-04-27T16:50:14.226Z,47.74
2023-04-27T16:52:41.543Z,48.23
2023-04-27T16:55:09.502Z,47.73
2023-04-27T16:57:37.376Z,48.53
2023-04-27T17:00:06.913Z,48.36
2023-04-27T17:02:34.291Z,48.67
2023-04-27T17:05:02.557Z,48.91
2023-04-27T17:07:33.138Z,49.44
2023-04-27T17:10:01.030Z,49.23
2023-04-27T17:12:28.316Z,49.53
2023-04-27T17:14:55.761Z,50.01
2023-04-27T17:17:23.155Z,50.00
2023-04-27T17:19:50.429Z,50.07
2023-04-27T17:22:17.784Z,50.65
2023-04-27T17:24:45.193Z,51.06
2023-04-27T17:27:12.539Z,50.91
2023-04-27T17:29:39.931Z,50.97
2023-04-27T17:32:07.207Z,51.42
2023-04-27T17:34:34.511Z,51.00
2023-04-27T17:37:02.240Z,51.75
2023-04-27T17:39:29.629Z,51.45
2023-04-27T17:41:57.442Z,52.16
2023-04-27T17:44:25.081Z,52.77
2023-04-27T17:46:52.725Z,52.87
2023-04-27T17:49:20.178Z,53.28
2023-04-27T17:51:48.736Z,53.45
2023-04-27T17:54:16.233Z,53.36
2023-04-27T17:56:43.530Z,53.74
2023-04-27T17:59:11.025Z,53.67
2023-04-27T18:01:38.342Z,53.70
2023-04-27T18:04:14.362Z,53.36
2023-04-27T18:06:41.851Z,53.61
2023-04-27T18:09:09.354Z,54.51
2023-04-27T18:11:36.761Z,54.73
2023-04-27T18:14:04.162Z,54.97
2023-04-27T18:16:31.616Z,55.36
2023-04-27T18:18:59.019Z,55.65
2023-04-27T18:21:28.514Z,55.14
2023-04-27T18:23:56.760Z,55.72
2023-04-27T18:26:24.026Z,55.91
2023-04-27T18:28:51.278Z,55.78
2023-04-27T18:31:19.461Z,56.28
2023-04-27T18:33:47.568Z,56.36
2023-04-27T18:36:15.057Z,56.38
2023-04-27T18:38:42.283Z,57.17
2023-04-27T18:41:09.682Z,57.15
2023-04-27T18:43:37.235Z,57.31
2023-04-27T18:46:04.940Z,57.53
2023-04-27T18:48:32.760Z,57.62
2023-04-27T18:51:00.198Z,57.85
2023-04-27T18:53:28.383Z,58.16
2023-04-27T18:55:55.992Z,58.24
2023-04-27T18:58:23.919Z,58.89
2023-04-27T19:00:51.413Z,59.67
2023-04-27T19:03:18.800Z,60.31
2023-04-27T19:05:46.512Z,61.30
2023-04-27T19:08:13.794Z,61.46
2023-04-27T19:10:44.098Z,62.52
2023-04-27T19:13:11.451Z,63.54
2023-04-27T19:15:39.660Z,64.04
2023-04-27T19:18:10.959Z,64.42
2023-04-27T19:20:40.106Z,64.97
2023-04-27T19:23:09.702Z,65.76
2023-04-27T19:25:37.429Z,66.02
2023-04-27T19:28:06.090Z,66.33
2023-04-27T19:30:33.388Z,66.76
2023-04-27T19:33:00.696Z,66.88
2023-04-27T19:35:28.531Z,67.21
2023-04-27T19:37:56.312Z,67.66
2023-04-27T19:40:23.596Z,67.73
2023-04-27T19:42:51.089Z,67.85
2023-04-27T19:45:22.647Z,68.19
2023-04-27T19:47:50.339Z,68.32
2023-04-27T19:50:18.223Z,68.15
2023-04-27T19:52:45.958Z,68.48
2023-04-27T19:55:14.122Z,68.17
2023-04-27T19:57:41.372Z,68.52
2023-04-27T20:00:12.707Z,68.46
2023-04-27T20:02:42.856Z,68.70
2023-04-27T20:05:10.953Z,68.47
2023-04-27T20:07:38.338Z,68.88
2023-04-27T20:10:06.150Z,69.17
2023-04-27T20:12:51.385Z,69.23
2023-04-27T20:15:20.965Z,69.36
2023-04-27T20:17:48.757Z,69.37
2023-04-27T20:20:16.076Z,69.36
2023-04-27T20:22:43.529Z,69.50
2023-04-27T20:25:11.035Z,69.56
2023-04-27T20:27:38.251Z,69.68
2023-04-27T20:30:06.227Z,69.73
2023-04-27T20:32:33.551Z,70.14
2023-04-27T20:35:02.808Z,70.30
2023-04-27T20:37:30.050Z,70.47
2023-04-27T20:39:57.313Z,70.63
2023-04-27T20:42:24.908Z,70.87
2023-04-27T20:44:55.152Z,71.22
2023-04-27T20:47:22.752Z,71.54
2023-04-27T20:49:50.137Z,71.80
2023-04-27T20:52:17.475Z,71.82
2023-04-27T20:54:44.782Z,72.23
2023-04-27T20:57:14.542Z,72.37
2023-04-27T20:59:42.057Z,72.42
2023-04-27T21:02:09.610Z,73.11
2023-04-27T21:04:36.987Z,73.30
2023-04-27T21:07:04.328Z,73.70
2023-04-27T21:09:31.878Z,73.72
2023-04-27T21:11:59.188Z,73.79
2023-04-27T21:14:26.426Z,73.79
2023-04-27T21:16:53.878Z,74.03
2023-04-27T21:19:21.135Z,74.21
2023-04-27T21:21:48.448Z,74.23
2023-04-27T21:24:15.876Z,74.51
2023-04-27T21:26:43.234Z,74.72
2023-04-27T21:29:10.471Z,74.95
2023-04-27T21:31:37.988Z,74.97
2023-04-27T21:34:05.243Z,75.20
2023-04-27T21:36:32.762Z,75.19
2023-04-27T21:39:00.181Z,75.31
2023-04-27T21:41:27.716Z,75.61
2023-04-27T21:43:54.918Z,75.81
2023-04-27T21:46:24.338Z,75.93
2023-04-27T21:48:51.702Z,75.86
2023-04-27T21:51:19.320Z,75.90
2023-04-27T21:53:46.516Z,76.09
2023-04-27T21:56:14.056Z,76.15
2023-04-27T21:58:41.458Z,76.45
2023-04-27T22:01:08.759Z,76.61
2023-04-27T22:03:36.273Z,76.82
2023-04-27T22:06:03.649Z,76.90
2023-04-27T22:08:31.361Z,77.04
2023-04-27T22:10:58.670Z,77.07
2023-04-27T22:13:25.831Z,77.33
2023-04-27T22:15:53.133Z,77.55
2023-04-27T22:18:20.489Z,77.54
2023-04-27T22:20:47.802Z,77.75
2023-04-27T22:23:15.077Z,77.85
2023-04-27T22:25:43.617Z,77.99
2023-04-27T22:28:11.357Z,78.24
2023-04-27T22:30:41.127Z,78.33
2023-04-27T22:33:09.113Z,78.63
2023-04-27T22:35:39.402Z,78.77
2023-04-27T22:38:07.836Z,78.82
2023-04-27T22:40:35.489Z,79.19
2023-04-27T22:43:02.640Z,79.54
2023-04-27T22:45:29.890Z,79.61
2023-04-27T22:47:58.035Z,79.87
2023-04-27T22:50:25.321Z,79.85
2023-04-27T22:52:53.402Z,80.16
2023-04-27T22:55:20.926Z,80.16
2023-04-27T22:57:50.292Z,80.23
2023-04-27T23:00:17.757Z,80.31
2023-04-27T23:02:45.259Z,80.61
2023-04-27T23:05:12.828Z,80.81
2023-04-27T23:07:43.811Z,80.87
2023-04-27T23:10:11.383Z,80.96
2023-04-27T23:12:39.154Z,81.16
2023-04-27T23:15:06.738Z,81.08
2023-04-27T23:17:34.588Z,80.88
2023-04-27T23:20:06.915Z,80.97
2023-04-27T23:22:35.997Z,81.04
2023-04-27T23:25:03.394Z,80.72
2023-04-27T23:27:30.696Z,80.67
2023-04-27T23:29:57.909Z,80.91
2023-04-27T23:32:25.381Z,80.77
2023-04-27T23:34:55.606Z,80.69
2023-04-27T23:37:24.746Z,80.74
2023-04-27T23:39:52.009Z,80.71
2023-04-27T23:42:19.437Z,80.86
2023-04-27T23:44:46.677Z,81.01
2023-04-27T23:47:14.029Z,80.97
2023-04-27T23:49:44.770Z,81.02
2023-04-27T23:52:12.730Z,81.10
2023-04-27T23:54:39.974Z,81.20
2023-04-27T23:57:07.292Z,80.93
2023-04-27T23:59:37.580Z,81.03
